Time;durP1;ratioP1;P1;durP2;ratioP2;P2;SDS_P1;SDS_P2;PMS_P1;PMS_P2;Temp;Humidity;BMP_temperature;BMP_pressure;BME280_temperature;BME280_humidity;BME280_pressure;Samples;Min_cycle;Max_cycle;Signal;HPM_P1;HPM_P2
2023/06/12 00:02:20;;;;;;;9.55;4.25;;;;;;;;;;6264571;22;20042;-88
2023/06/12 00:04:46;;;;;;;8.15;4.03;;;;;;;;;;6262669;22;20011;-87
2023/06/12 00:07:12;;;;;;;9.23;4.95;;;;;;;;;;6264115;22;20059;-87
2023/06/12 00:09:39;;;;;;;9.57;4.53;;;;;;;;;;6263685;22;20012;-84
2023/06/12 00:12:05;;;;;;;7.45;4.95;;;;;;;;;;6264197;22;20023;-86
2023/06/12 00:14:31;;;;;;;7.75;5.10;;;;;;;;;;6237695;22;20015;-87
2023/06/12 00:16:57;;;;;;;6.80;4.57;;;;;;;;;;6239506;22;20019;-87
2023/06/12 00:19:23;;;;;;;9.07;4.97;;;;;;;;;;6239808;22;20023;-87
2023/06/12 00:21:49;;;;;;;11.00;4.88;;;;;;;;;;6265432;22;20007;-86
2023/06/12 00:24:15;;;;;;;7.15;4.53;;;;;;;;;;6265448;22;20065;-88
2023/06/12 00:26:41;;;;;;;14.23;4.97;;;;;;;;;;6242762;22;20015;-87
2023/06/12 00:29:08;;;;;;;9.77;5.22;;;;;;;;;;6266914;22;20008;-87
2023/06/12 00:31:34;;;;;;;6.88;4.90;;;;;;;;;;6240715;22;20031;-87
2023/06/12 00:34:00;;;;;;;7.65;5.25;;;;;;;;;;6265889;22;20016;-87
2023/06/12 00:36:26;;;;;;;9.88;5.07;;;;;;;;;;6263418;22;20069;-87
2023/06/12 00:38:53;;;;;;;11.27;6.68;;;;;;;;;;6237574;22;20093;-87
2023/06/12 00:41:19;;;;;;;9.00;5.47;;;;;;;;;;6265660;22;20022;-86
2023/06/12 00:43:45;;;;;;;9.93;5.50;;;;;;;;;;6238922;22;20450;-87
2023/06/12 00:46:12;;;;;;;8.32;6.28;;;;;;;;;;6264663;22;20011;-87
2023/06/12 00:48:40;;;;;;;7.00;5.63;;;;;;;;;;6291909;22;20373;-88
2023/06/12 00:51:08;;;;;;;10.10;6.90;;;;;;;;;;6265670;22;20067;-87
2023/06/12 00:53:34;;;;;;;10.68;6.30;;;;;;;;;;6265592;22;20019;-87
2023/06/12 00:56:01;;;;;;;7.43;5.95;;;;;;;;;;6239585;22;20067;-86
2023/06/12 00:58:27;;;;;;;9.50;6.72;;;;;;;;;;6265842;22;20015;-87
2023/06/12 01:00:54;;;;;;;14.93;7.30;;;;;;;;;;6266567;22;20049;-87
2023/06/12 01:03:21;;;;;;;8.45;7.32;;;;;;;;;;6266010;22;20012;-86
2023/06/12 01:05:48;;;;;;;9.27;5.97;;;;;;;;;;6266518;22;20039;-86
2023/06/12 01:08:24;;;;;;;8.88;6.45;;;;;;;;;;6239528;22;20015;-87
2023/06/12 01:10:50;;;;;;;8.82;7.35;;;;;;;;;;6239696;22;20027;-87
2023/06/12 01:13:16;;;;;;;13.77;8.40;;;;;;;;;;6291277;22;20059;-87
2023/06/12 01:15:43;;;;;;;9.60;6.88;;;;;;;;;;6240117;22;20016;-85
2023/06/12 01:18:09;;;;;;;11.63;7.57;;;;;;;;;;6267150;22;20039;-87
2023/06/12 01:20:35;;;;;;;9.13;7.45;;;;;;;;;;6238785;22;20070;-87
2023/06/12 01:23:05;;;;;;;10.20;7.82;;;;;;;;;;6238861;22;20011;-87
2023/06/12 01:25:47;;;;;;;10.40;7.03;;;;;;;;;;6265607;22;20052;-88
2023/06/12 01:28:32;;;;;;;9.50;6.90;;;;;;;;;;6238907;22;20012;-87
2023/06/12 01:31:34;;;;;;;8.75;7.13;;;;;;;;;;6238840;22;20015;-87
2023/06/12 01:34:20;;;;;;;12.65;7.82;;;;;;;;;;6090117;23;20049;-87
2023/06/12 01:36:50;;;;;;;10.23;8.85;;;;;;;;;;6090267;23;20026;-86
2023/06/12 01:39:16;;;;;;;10.18;8.30;;;;;;;;;;6091297;23;20013;-85
2023/06/12 01:41:42;;;;;;;12.85;7.18;;;;;;;;;;6088444;23;20022;-88
2023/06/12 01:44:09;;;;;;;8.43;7.15;;;;;;;;;;6089880;23;20014;-88
2023/06/12 01:46:35;;;;;;;9.15;7.50;;;;;;;;;;6089787;23;20021;-87
2023/06/12 01:49:03;;;;;;;10.95;7.55;;;;;;;;;;6111606;23;20020;-86
2023/06/12 01:51:29;;;;;;;9.32;7.35;;;;;;;;;;6089268;23;20038;-87
2023/06/12 01:53:55;;;;;;;8.02;5.43;;;;;;;;;;6089697;23;20088;-87
2023/06/12 01:56:25;;;;;;;9.30;7.78;;;;;;;;;;6113013;23;20146;-87
2023/06/12 01:58:51;;;;;;;11.70;5.65;;;;;;;;;;6111927;23;20018;-87
2023/06/12 02:01:18;;;;;;;10.50;5.70;;;;;;;;;;6113989;23;20081;-87
2023/06/12 02:03:45;;;;;;;14.25;5.70;;;;;;;;;;6113588;23;20014;-88
2023/06/12 02:06:15;;;;;;;9.85;5.30;;;;;;;;;;6090306;23;20014;-87
2023/06/12 02:08:41;;;;;;;10.98;5.78;;;;;;;;;;6211818;22;20008;-87
2023/06/12 02:11:07;;;;;;;9.25;5.10;;;;;;;;;;6264699;22;20480;-87
2023/06/12 02:13:33;;;;;;;13.95;5.10;;;;;;;;;;6238687;22;20050;-87
2023/06/12 02:16:01;;;;;;;11.13;4.90;;;;;;;;;;6239134;22;20065;-87
2023/06/12 02:18:27;;;;;;;8.18;4.57;;;;;;;;;;6238486;22;20396;-87
2023/06/12 02:20:53;;;;;;;7.90;4.65;;;;;;;;;;6238152;22;20019;-87
2023/06/12 02:23:19;;;;;;;8.93;4.35;;;;;;;;;;6237851;22;20091;-87
2023/06/12 02:25:45;;;;;;;12.57;4.80;;;;;;;;;;6239856;22;20008;-87
2023/06/12 02:28:11;;;;;;;8.85;5.10;;;;;;;;;;6241301;22;20366;-86
2023/06/12 02:30:37;;;;;;;9.07;4.82;;;;;;;;;;6265053;22;20046;-87
2023/06/12 02:33:09;;;;;;;7.72;4.80;;;;;;;;;;6265479;22;20016;-86
2023/06/12 02:35:38;;;;;;;12.32;5.38;;;;;;;;;;6266008;22;20018;-87
2023/06/12 02:38:04;;;;;;;7.70;5.07;;;;;;;;;;6239788;22;20023;-87
2023/06/12 02:40:31;;;;;;;12.65;4.65;;;;;;;;;;6265619;22;20019;-87
2023/06/12 02:42:57;;;;;;;9.40;4.20;;;;;;;;;;6243049;22;20035;-87
2023/06/12 02:45:23;;;;;;;9.07;4.82;;;;;;;;;;6241058;22;20011;-87
2023/06/12 02:47:49;;;;;;;10.15;4.60;;;;;;;;;;6264140;22;20012;-86
2023/06/12 02:50:16;;;;;;;8.20;4.15;;;;;;;;;;6262361;22;20019;-86
2023/06/12 02:52:42;;;;;;;8.88;4.63;;;;;;;;;;6265034;22;20469;-87
2023/06/12 02:55:08;;;;;;;8.40;4.97;;;;;;;;;;6236983;22;20069;-87
2023/06/12 02:57:34;;;;;;;9.90;5.25;;;;;;;;;;6237351;22;20016;-86
2023/06/12 03:00:01;;;;;;;12.75;5.40;;;;;;;;;;6237317;22;20016;-87
2023/06/12 03:02:27;;;;;;;7.80;4.75;;;;;;;;;;6263813;22;20016;-87
2023/06/12 03:04:54;;;;;;;9.05;5.82;;;;;;;;;;6263804;22;20026;-87
2023/06/12 03:07:20;;;;;;;14.43;4.90;;;;;;;;;;6239532;22;20011;-88
2023/06/12 03:09:46;;;;;;;16.30;5.28;;;;;;;;;;6236253;22;20023;-87
2023/06/12 03:12:12;;;;;;;11.60;5.75;;;;;;;;;;6238796;22;20016;-87
2023/06/12 03:14:39;;;;;;;13.73;7.07;;;;;;;;;;6266045;22;20016;-87
2023/06/12 03:17:05;;;;;;;12.32;5.90;;;;;;;;;;6238602;22;20022;-87
2023/06/12 03:19:32;;;;;;;14.90;7.47;;;;;;;;;;6264739;22;20012;-87
2023/06/12 03:21:58;;;;;;;12.98;8.05;;;;;;;;;;6238601;22;20018;-86
2023/06/12 03:24:26;;;;;;;14.68;5.78;;;;;;;;;;6264727;22;20030;-86
2023/06/12 03:26:53;;;;;;;13.60;5.80;;;;;;;;;;6263777;22;20012;-88
2023/06/12 03:29:19;;;;;;;10.32;5.85;;;;;;;;;;6264049;22;20174;-86
2023/06/12 03:31:45;;;;;;;15.52;6.47;;;;;;;;;;6239528;22;20066;-88
2023/06/12 03:34:16;;;;;;;13.07;9.40;;;;;;;;;;6238834;22;20039;-87
2023/06/12 03:36:43;;;;;;;15.07;7.72;;;;;;;;;;6237753;22;20018;-87
2023/06/12 03:39:09;;;;;;;10.63;6.47;;;;;;;;;;6264359;22;20022;-87
2023/06/12 03:41:35;;;;;;;10.50;6.15;;;;;;;;;;6238664;22;20015;-86
2023/06/12 03:44:01;;;;;;;10.75;9.02;;;;;;;;;;6263603;22;20060;-88
2023/06/12 03:46:32;;;;;;;11.30;6.28;;;;;;;;;;6237305;22;20330;-87
2023/06/12 03:48:58;;;;;;;12.73;7.78;;;;;;;;;;6263295;22;20016;-87
2023/06/12 03:51:25;;;;;;;9.20;6.68;;;;;;;;;;6263490;22;20019;-87
2023/06/12 03:53:51;;;;;;;14.48;6.35;;;;;;;;;;6264401;22;20016;-86
2023/06/12 03:56:17;;;;;;;11.00;6.70;;;;;;;;;;6238219;22;20414;-86
2023/06/12 03:58:43;;;;;;;10.43;5.50;;;;;;;;;;6237510;22;20388;-87
2023/06/12 04:01:09;;;;;;;11.38;7.78;;;;;;;;;;6263141;22;20030;-87
2023/06/12 04:03:38;;;;;;;9.38;6.00;;;;;;;;;;6238593;22;20012;-87
2023/06/12 04:06:04;;;;;;;14.43;6.28;;;;;;;;;;6265203;22;20079;-86
2023/06/12 04:08:32;;;;;;;11.02;6.15;;;;;;;;;;6264526;22;20399;-87
2023/06/12 04:11:02;;;;;;;12.57;5.88;;;;;;;;;;6238225;22;20156;-86
2023/06/12 04:13:28;;;;;;;8.00;6.47;;;;;;;;;;6239209;22;20069;-87
2023/06/12 04:15:55;;;;;;;11.32;7.32;;;;;;;;;;6264487;22;20012;-87
2023/06/12 04:18:22;;;;;;;7.78;5.38;;;;;;;;;;6264609;22;20011;-87
2023/06/12 04:20:49;;;;;;;10.25;5.15;;;;;;;;;;6238409;22;20019;-86
2023/06/12 04:23:17;;;;;;;12.23;6.00;;;;;;;;;;6240223;22;20035;-87
2023/06/12 04:25:44;;;;;;;8.23;5.70;;;;;;;;;;6266468;22;20016;-87
2023/06/12 04:28:13;;;;;;;9.10;6.38;;;;;;;;;;6264646;22;20008;-86
2023/06/12 04:30:41;;;;;;;11.68;5.20;;;;;;;;;;6239248;22;20015;-86
2023/06/12 04:33:09;;;;;;;15.90;6.32;;;;;;;;;;6239178;22;20086;-87
2023/06/12 04:35:35;;;;;;;13.32;6.05;;;;;;;;;;6265606;22;20040;-87
2023/06/12 04:38:01;;;;;;;13.82;6.57;;;;;;;;;;6262426;22;20008;-87
2023/06/12 04:40:28;;;;;;;12.55;5.72;;;;;;;;;;6240841;22;20012;-87
2023/06/12 04:42:56;;;;;;;9.18;5.55;;;;;;;;;;6261944;22;20058;-87
2023/06/12 04:45:23;;;;;;;15.27;6.10;;;;;;;;;;6238281;22;20011;-87
2023/06/12 04:47:50;;;;;;;11.93;6.75;;;;;;;;;;6289506;22;20061;-87
2023/06/12 04:50:16;;;;;;;9.65;5.95;;;;;;;;;;6240832;22;20024;-86
2023/06/12 04:52:42;;;;;;;10.52;5.85;;;;;;;;;;6264061;22;20016;-86
2023/06/12 04:55:09;;;;;;;11.45;6.35;;;;;;;;;;6239849;22;20020;-87
2023/06/12 04:57:39;;;;;;;10.63;6.88;;;;;;;;;;6269944;22;20015;-85
2023/06/12 05:00:06;;;;;;;12.93;7.32;;;;;;;;;;6244409;22;20016;-87
2023/06/12 05:02:33;;;;;;;12.32;6.97;;;;;;;;;;6243757;22;20018;-87
2023/06/12 05:05:00;;;;;;;8.93;7.13;;;;;;;;;;6244636;22;20034;-87
2023/06/12 05:07:27;;;;;;;10.88;7.03;;;;;;;;;;6270739;22;20035;-88
2023/06/12 05:09:54;;;;;;;11.57;8.07;;;;;;;;;;6272433;22;20020;-87
2023/06/12 05:12:20;;;;;;;15.77;10.48;;;;;;;;;;6244831;22;20023;-87
2023/06/12 05:14:46;;;;;;;13.05;11.75;;;;;;;;;;6245575;22;20063;-85
2023/06/12 05:17:13;;;;;;;9.23;6.40;;;;;;;;;;6246690;22;20016;-90
2023/06/12 05:19:39;;;;;;;15.77;5.47;;;;;;;;;;6238451;22;20431;-94
2023/06/12 05:22:05;;;;;;;12.45;4.82;;;;;;;;;;6241893;22;20019;-87
2023/06/12 05:24:32;;;;;;;10.07;4.53;;;;;;;;;;6261670;22;20042;-86
2023/06/12 05:26:58;;;;;;;13.15;6.90;;;;;;;;;;6234091;22;20382;-87
2023/06/12 05:29:25;;;;;;;14.40;10.20;;;;;;;;;;6233933;22;20019;-87
2023/06/12 05:31:51;;;;;;;14.23;12.77;;;;;;;;;;6251535;22;20016;-88
2023/06/12 05:34:17;;;;;;;14.57;13.07;;;;;;;;;;6223055;22;20011;-87
2023/06/12 05:36:43;;;;;;;14.90;9.38;;;;;;;;;;6248786;22;20350;-87
2023/06/12 05:39:09;;;;;;;13.00;11.65;;;;;;;;;;6274966;22;20061;-86
2023/06/12 05:41:35;;;;;;;12.18;11.18;;;;;;;;;;6222717;22;20319;-88
2023/06/12 05:44:03;;;;;;;22.10;20.15;;;;;;;;;;6248911;22;20103;-87
2023/06/12 05:46:29;;;;;;;27.60;25.55;;;;;;;;;;6248640;22;20016;-88
2023/06/12 05:48:57;;;;;;;57.15;53.53;;;;;;;;;;6222782;22;20054;-87
2023/06/12 05:51:24;;;;;;;70.43;65.65;;;;;;;;;;6247261;22;20601;-87
2023/06/12 05:53:50;;;;;;;224.50;210.10;;;;;;;;;;6275734;22;20018;-87
2023/06/12 05:56:16;;;;;;;321.33;300.38;;;;;;;;;;6222574;22;20014;-87
2023/06/12 05:58:43;;;;;;;441.30;411.70;;;;;;;;;;6248381;22;20090;-88
2023/06/12 06:01:11;;;;;;;625.97;578.67;;;;;;;;;;6222887;22;20026;-88
2023/06/12 06:03:42;;;;;;;691.80;639.13;;;;;;;;;;6223228;22;20345;-90
2023/06/12 06:06:08;;;;;;;839.90;769.40;;;;;;;;;;6224222;22;20012;-89
2023/06/12 06:08:34;;;;;;;787.15;723.25;;;;;;;;;;6249758;22;20030;-89
2023/06/12 06:11:00;;;;;;;941.38;855.20;;;;;;;;;;6224071;22;20015;-90
2023/06/12 06:13:26;;;;;;;949.53;862.10;;;;;;;;;;6224153;22;20015;-90
2023/06/12 06:15:52;;;;;;;985.03;890.95;;;;;;;;;;6223721;22;20099;-90
2023/06/12 06:18:18;;;;;;;981.70;887.05;;;;;;;;;;6223989;22;20012;-90
2023/06/12 06:20:44;;;;;;;1029.50;925.15;;;;;;;;;;6249786;22;20022;-89
2023/06/12 06:23:10;;;;;;;977.25;885.83;;;;;;;;;;6224626;22;20011;-90
2023/06/12 06:25:38;;;;;;;1093.70;967.70;;;;;;;;;;6224427;22;20030;-90
2023/06/12 06:28:04;;;;;;;1059.45;945.28;;;;;;;;;;6224556;22;20413;-90
2023/06/12 06:30:30;;;;;;;1103.00;963.13;;;;;;;;;;6224411;22;20018;-91
2023/06/12 06:32:56;;;;;;;1247.85;996.53;;;;;;;;;;6224382;22;20398;-91
2023/06/12 06:35:23;;;;;;;1175.78;984.35;;;;;;;;;;6224220;22;20008;-90
2023/06/12 06:37:50;;;;;;;1272.32;994.35;;;;;;;;;;6224296;22;20060;-88
2023/06/12 06:40:16;;;;;;;1511.80;999.90;;;;;;;;;;6249795;22;20034;-91
2023/06/12 06:42:42;;;;;;;1259.38;995.78;;;;;;;;;;6224099;22;20403;-92
2023/06/12 06:45:08;;;;;;;1671.65;999.90;;;;;;;;;;6227522;22;20046;-96
2023/06/12 06:47:35;;;;;;;1538.13;999.90;;;;;;;;;;6223147;22;20434;-87
2023/06/12 06:50:01;;;;;;;1601.28;999.90;;;;;;;;;;6247621;22;20047;-88
2023/06/12 06:52:27;;;;;;;1503.78;999.90;;;;;;;;;;6247426;22;20091;-89
2023/06/12 06:54:53;;;;;;;1442.45;999.90;;;;;;;;;;6220854;22;20598;-88
2023/06/12 06:57:21;;;;;;;1414.82;999.90;;;;;;;;;;6222335;22;20118;-89
2023/06/12 06:59:47;;;;;;;1473.45;999.90;;;;;;;;;;6217425;23;20045;-89
2023/06/12 07:02:13;;;;;;;1635.43;999.90;;;;;;;;;;6217082;23;20201;-89
2023/06/12 07:04:39;;;;;;;1530.13;999.90;;;;;;;;;;6217413;23;20015;-88
2023/06/12 07:07:06;;;;;;;1676.38;999.90;;;;;;;;;;6217696;23;20087;-88
2023/06/12 07:09:32;;;;;;;1920.50;999.90;;;;;;;;;;6243584;22;20039;-88
2023/06/12 07:11:58;;;;;;;1868.55;999.90;;;;;;;;;;6243056;23;20450;-89
2023/06/12 07:14:24;;;;;;;1965.57;999.90;;;;;;;;;;6241738;23;20139;-88
2023/06/12 07:16:50;;;;;;;1999.90;999.90;;;;;;;;;;6217394;23;20027;-89
2023/06/12 07:19:15;;;;;;;1999.90;999.90;;;;;;;;;;6217633;23;20292;-88
2023/06/12 07:21:41;;;;;;;1999.90;999.90;;;;;;;;;;6217789;23;20047;-89
2023/06/12 07:24:08;;;;;;;1999.90;999.90;;;;;;;;;;6243939;23;20030;-88
2023/06/12 07:26:34;;;;;;;1999.90;999.90;;;;;;;;;;6219712;23;20132;-88
2023/06/12 07:29:01;;;;;;;1999.90;999.90;;;;;;;;;;6218916;23;20016;-88
2023/06/12 07:31:27;;;;;;;1989.32;999.90;;;;;;;;;;6244513;23;20115;-89
2023/06/12 07:33:53;;;;;;;1968.18;999.90;;;;;;;;;;6245961;23;20016;-89
2023/06/12 07:36:19;;;;;;;1921.53;999.90;;;;;;;;;;6245358;22;20351;-88
2023/06/12 07:38:45;;;;;;;1999.90;999.90;;;;;;;;;;6219003;23;20398;-88
2023/06/12 07:41:12;;;;;;;1745.85;999.90;;;;;;;;;;6219249;23;20064;-88
2023/06/12 07:43:38;;;;;;;1652.80;999.90;;;;;;;;;;6219255;23;20310;-88
2023/06/12 07:46:04;;;;;;;1979.78;999.90;;;;;;;;;;6217836;23;20024;-88
2023/06/12 07:48:30;;;;;;;1999.05;999.90;;;;;;;;;;6218731;23;20087;-87
2023/06/12 07:50:56;;;;;;;1832.40;999.90;;;;;;;;;;6244159;23;20465;-88
2023/06/12 07:53:22;;;;;;;1953.32;999.90;;;;;;;;;;6218715;23;20012;-88
2023/06/12 07:55:49;;;;;;;1725.35;999.90;;;;;;;;;;6244441;23;20016;-88
2023/06/12 07:58:15;;;;;;;1558.25;999.90;;;;;;;;;;6244790;23;20020;-88
2023/06/12 08:00:42;;;;;;;1802.38;999.90;;;;;;;;;;6243491;22;20039;-89
2023/06/12 08:03:08;;;;;;;1900.63;999.90;;;;;;;;;;6244738;22;20012;-88
2023/06/12 08:05:36;;;;;;;1834.15;999.90;;;;;;;;;;6244490;22;20020;-89
2023/06/12 08:08:02;;;;;;;1756.22;999.90;;;;;;;;;;6245155;23;20085;-89
2023/06/12 08:10:28;;;;;;;1965.85;999.90;;;;;;;;;;6244658;22;20023;-89
2023/06/12 08:12:54;;;;;;;1991.53;999.90;;;;;;;;;;6218871;23;20027;-88
2023/06/12 08:15:21;;;;;;;1999.90;999.90;;;;;;;;;;6217654;23;20023;-85
2023/06/12 08:17:47;;;;;;;1586.38;999.90;;;;;;;;;;6217221;23;20015;-87
2023/06/12 08:20:15;;;;;;;1703.45;999.90;;;;;;;;;;6243618;23;20086;-88
2023/06/12 08:22:42;;;;;;;1999.90;999.90;;;;;;;;;;6244665;23;20008;-89
2023/06/12 08:25:09;;;;;;;1999.90;999.90;;;;;;;;;;6219117;23;20058;-90
2023/06/12 08:27:35;;;;;;;1837.43;999.90;;;;;;;;;;6245077;22;20024;-90
2023/06/12 08:30:01;;;;;;;1806.07;999.90;;;;;;;;;;6219019;23;20016;-90
2023/06/12 08:32:27;;;;;;;1942.97;999.90;;;;;;;;;;6219454;23;20016;-89
2023/06/12 08:34:53;;;;;;;1839.30;999.90;;;;;;;;;;6244517;23;20052;-89
2023/06/12 08:37:20;;;;;;;1841.45;999.90;;;;;;;;;;6218129;23;20082;-90
2023/06/12 08:39:46;;;;;;;1948.00;999.90;;;;;;;;;;6244867;23;20016;-90
2023/06/12 08:42:15;;;;;;;1899.28;999.90;;;;;;;;;;6244916;22;20392;-91
2023/06/12 08:44:44;;;;;;;1932.70;999.90;;;;;;;;;;6218891;23;20083;-90
2023/06/12 08:47:10;;;;;;;1900.60;999.90;;;;;;;;;;6244859;23;20016;-90
2023/06/12 08:49:37;;;;;;;1875.72;999.90;;;;;;;;;;6219208;23;20016;-89
2023/06/12 08:52:03;;;;;;;1950.88;999.90;;;;;;;;;;6219008;23;20051;-90
2023/06/12 08:54:33;;;;;;;1783.65;999.90;;;;;;;;;;6244638;23;20012;-90
2023/06/12 08:56:59;;;;;;;1852.25;999.90;;;;;;;;;;6246255;22;20051;-90
2023/06/12 08:59:26;;;;;;;1764.75;999.90;;;;;;;;;;6243786;22;20120;-88
2023/06/12 09:01:54;;;;;;;1545.32;999.90;;;;;;;;;;6218869;23;20013;-89
2023/06/12 09:04:28;;;;;;;1663.95;999.90;;;;;;;;;;6244989;23;20019;-89
2023/06/12 09:07:01;;;;;;;1540.07;999.90;;;;;;;;;;6245052;23;20115;-89
2023/06/12 09:09:27;;;;;;;;;;;;;;;;;;6246252;22;20019;-90
2023/06/12 09:11:53;;;;;;;1569.25;999.90;;;;;;;;;;6245007;23;19911;-89
2023/06/12 09:14:21;;;;;;;1652.70;999.90;;;;;;;;;;6218633;23;20016;-89
2023/06/12 09:16:48;;;;;;;1433.70;999.90;;;;;;;;;;6243991;23;20440;-89
2023/06/12 09:19:14;;;;;;;1427.60;999.90;;;;;;;;;;6244295;22;20020;-89
2023/06/12 09:21:40;;;;;;;1403.70;999.90;;;;;;;;;;6218790;23;20013;-89
2023/06/12 09:24:06;;;;;;;1214.70;993.03;;;;;;;;;;6218523;23;20099;-88
2023/06/12 09:26:32;;;;;;;1278.13;994.28;;;;;;;;;;6218242;23;20008;-89
2023/06/12 09:28:59;;;;;;;1140.38;977.60;;;;;;;;;;6217889;23;20087;-89
2023/06/12 09:31:25;;;;;;;1210.15;984.92;;;;;;;;;;6243913;22;20019;-89
2023/06/12 09:33:52;;;;;;;1118.13;961.72;;;;;;;;;;6243685;23;20047;-88
2023/06/12 09:36:19;;;;;;;1119.28;965.95;;;;;;;;;;6243641;22;20116;-86
2023/06/12 09:38:49;;;;;;;1059.18;941.38;;;;;;;;;;6245584;22;20023;-95
2023/06/12 09:41:15;;;;;;;1139.90;967.53;;;;;;;;;;6244213;23;20016;-93
2023/06/12 09:43:41;;;;;;;1184.45;977.67;;;;;;;;;;6245071;23;20012;-93
2023/06/12 09:46:08;;;;;;;1165.60;967.97;;;;;;;;;;6218075;23;20012;-92
2023/06/12 09:48:38;;;;;;;1033.43;924.53;;;;;;;;;;6244227;23;20438;-91
2023/06/12 09:51:08;;;;;;;1062.82;944.30;;;;;;;;;;6245652;23;20026;-92
2023/06/12 09:53:38;;;;;;;1057.55;941.53;;;;;;;;;;6245176;23;20043;-91
2023/06/12 09:56:08;;;;;;;1095.03;952.88;;;;;;;;;;6218473;23;20043;-92
2023/06/12 09:58:36;;;;;;;1069.07;951.03;;;;;;;;;;6220715;22;20016;-92
2023/06/12 10:01:03;;;;;;;1036.32;929.20;;;;;;;;;;6249431;22;20041;-93
2023/06/12 10:03:30;;;;;;;1034.25;926.88;;;;;;;;;;6223846;22;20024;-90
2023/06/12 10:05:57;;;;;;;981.20;886.85;;;;;;;;;;6249924;22;20011;-92
2023/06/12 10:08:23;;;;;;;1034.20;924.53;;;;;;;;;;6224037;22;20069;-93
2023/06/12 10:10:51;;;;;;;950.38;862.67;;;;;;;;;;6224206;22;20019;-94
2023/06/12 10:13:18;;;;;;;932.60;848.55;;;;;;;;;;6224368;22;20098;-93
2023/06/12 10:15:44;;;;;;;955.25;866.35;;;;;;;;;;6223450;22;20023;-92
2023/06/12 10:18:12;;;;;;;924.72;840.60;;;;;;;;;;6247711;22;20035;-91
2023/06/12 10:20:38;;;;;;;957.97;869.03;;;;;;;;;;6249103;22;20092;-91
2023/06/12 10:23:04;;;;;;;894.00;813.95;;;;;;;;;;6249807;22;20012;-93
2023/06/12 10:25:31;;;;;;;888.42;811.20;;;;;;;;;;6248955;22;20011;-92
2023/06/12 10:27:57;;;;;;;956.72;867.58;;;;;;;;;;6249696;22;20012;-91
2023/06/12 10:30:23;;;;;;;928.17;843.42;;;;;;;;;;6223902;22;20016;-92
2023/06/12 10:32:50;;;;;;;931.20;845.88;;;;;;;;;;6249717;22;20039;-92
2023/06/12 10:35:29;;;;;;;885.15;808.13;;;;;;;;;;6223744;22;20011;-92
2023/06/12 10:37:55;;;;;;;850.25;779.60;;;;;;;;;;6249390;22;20012;-92
2023/06/12 10:40:22;;;;;;;941.72;854.85;;;;;;;;;;6222640;22;20023;-92
2023/06/12 10:42:50;;;;;;;895.28;818.42;;;;;;;;;;6223876;22;20012;-91
2023/06/12 10:45:17;;;;;;;890.35;812.95;;;;;;;;;;6223868;22;20007;-91
2023/06/12 10:47:43;;;;;;;904.10;823.97;;;;;;;;;;6224675;22;20012;-93
2023/06/12 10:50:09;;;;;;;903.15;823.92;;;;;;;;;;6224112;22;20035;-92
2023/06/12 10:52:35;;;;;;;895.33;817.25;;;;;;;;;;6249613;22;20011;-91
2023/06/12 10:55:21;;;;;;;893.45;816.38;;;;;;;;;;6223633;22;20086;-91
2023/06/12 10:57:48;;;;;;;892.90;816.28;;;;;;;;;;6249386;22;20458;-92
2023/06/12 11:00:18;;;;;;;872.17;799.85;;;;;;;;;;6248843;22;20019;-91
2023/06/12 11:02:57;;;;;;;886.70;810.45;;;;;;;;;;6250517;22;20008;-92
2023/06/12 11:05:23;;;;;;;923.78;840.58;;;;;;;;;;6249853;22;20026;-93
2023/06/12 11:07:49;;;;;;;930.83;844.47;;;;;;;;;;6224661;22;20034;-94
2023/06/12 11:10:16;;;;;;;871.28;798.70;;;;;;;;;;6224288;22;20016;-94
2023/06/12 11:12:49;;;;;;;874.50;800.25;;;;;;;;;;6249862;22;20015;-94
2023/06/12 11:15:15;;;;;;;842.25;773.97;;;;;;;;;;6223909;22;20011;-92
2023/06/12 11:17:41;;;;;;;884.35;809.47;;;;;;;;;;6225332;22;20023;-93
2023/06/12 11:20:07;;;;;;;918.15;837.55;;;;;;;;;;6250395;22;20016;-93
2023/06/12 11:22:34;;;;;;;957.72;869.92;;;;;;;;;;6249473;22;20022;-93
2023/06/12 11:25:00;;;;;;;915.35;835.70;;;;;;;;;;6248927;22;20019;-94
2023/06/12 11:27:26;;;;;;;1012.08;912.38;;;;;;;;;;6224077;22;20012;-93
2023/06/12 11:29:52;;;;;;;957.83;869.25;;;;;;;;;;6249124;22;20530;-92
2023/06/12 11:32:19;;;;;;;1019.35;915.30;;;;;;;;;;6223984;22;20027;-93
2023/06/12 11:34:45;;;;;;;973.78;881.85;;;;;;;;;;6224277;22;20011;-94
2023/06/12 11:37:18;;;;;;;1019.97;917.70;;;;;;;;;;6248613;22;20177;-93
2023/06/12 11:39:44;;;;;;;1016.10;915.90;;;;;;;;;;6223988;22;20030;-93
2023/06/12 11:42:10;;;;;;;959.17;869.75;;;;;;;;;;6224583;22;20480;-94
2023/06/12 11:44:37;;;;;;;1009.08;910.25;;;;;;;;;;6223770;22;20050;-92
2023/06/12 11:47:04;;;;;;;1020.28;918.10;;;;;;;;;;6223708;22;20023;-92
2023/06/12 11:49:31;;;;;;;996.42;900.08;;;;;;;;;;6224087;22;20162;-93
2023/06/12 11:51:57;;;;;;;1046.82;936.38;;;;;;;;;;6223360;22;20008;-93
2023/06/12 11:54:23;;;;;;;1041.72;932.58;;;;;;;;;;6223504;22;20023;-93
2023/06/12 11:56:50;;;;;;;1091.18;963.17;;;;;;;;;;6223832;22;20462;-92
2023/06/12 11:59:16;;;;;;;1043.03;934.65;;;;;;;;;;6249005;22;20065;-94
2023/06/12 12:01:45;;;;;;;1032.70;926.72;;;;;;;;;;6224100;22;20016;-95
2023/06/12 12:04:11;;;;;;;1084.60;967.15;;;;;;;;;;6224107;22;20008;-93
2023/06/12 12:06:53;;;;;;;1099.53;974.65;;;;;;;;;;6248954;22;20047;-91
2023/06/12 12:09:26;;;;;;;1111.05;973.38;;;;;;;;;;6223840;22;20012;-94
2023/06/12 12:11:52;;;;;;;1034.18;926.00;;;;;;;;;;6225095;22;20023;-93
2023/06/12 12:14:19;;;;;;;924.80;842.15;;;;;;;;;;6225825;22;20007;-93
2023/06/12 12:16:45;;;;;;;1012.90;908.30;;;;;;;;;;6250637;22;20031;-94
2023/06/12 12:19:19;;;;;;;1011.97;908.83;;;;;;;;;;6251160;22;20007;-93
2023/06/12 12:21:46;;;;;;;992.53;893.95;;;;;;;;;;6250731;22;20091;-94
2023/06/12 12:24:12;;;;;;;1025.68;921.35;;;;;;;;;;6225740;22;20011;-93
2023/06/12 12:26:57;;;;;;;1064.57;949.90;;;;;;;;;;6225348;22;20019;-93
2023/06/12 12:29:23;;;;;;;1064.35;950.30;;;;;;;;;;6250455;22;20022;-92
2023/06/12 12:31:49;;;;;;;1045.18;938.28;;;;;;;;;;6250781;22;20435;-93
2023/06/12 12:34:15;;;;;;;1042.97;935.55;;;;;;;;;;6250868;22;20007;-93
2023/06/12 12:36:42;;;;;;;1021.03;918.20;;;;;;;;;;6224256;22;20135;-92
2023/06/12 12:39:09;;;;;;;1024.70;922.58;;;;;;;;;;6250632;22;20065;-93
2023/06/12 12:41:36;;;;;;;998.22;900.03;;;;;;;;;;6224493;22;20015;-93
2023/06/12 12:44:02;;;;;;;1024.07;917.08;;;;;;;;;;6225399;22;20023;-94
2023/06/12 12:46:28;;;;;;;1047.40;936.22;;;;;;;;;;6224880;22;20016;-93
2023/06/12 12:48:54;;;;;;;1035.60;929.75;;;;;;;;;;6251581;22;20019;-95
2023/06/12 12:51:20;;;;;;;1044.22;937.08;;;;;;;;;;6224465;22;20015;-95
2023/06/12 12:53:46;;;;;;;1148.80;979.20;;;;;;;;;;6225340;22;20016;-94
2023/06/12 12:56:15;;;;;;;1083.05;966.90;;;;;;;;;;6250446;22;20489;-93
2023/06/12 12:58:42;;;;;;;1133.10;983.67;;;;;;;;;;6224469;22;20015;-93
2023/06/12 13:01:09;;;;;;;1296.97;999.90;;;;;;;;;;6224341;22;20110;-94
2023/06/12 13:03:38;;;;;;;1106.00;982.88;;;;;;;;;;6250261;22;20020;-93
2023/06/12 13:06:04;;;;;;;1401.13;999.90;;;;;;;;;;6224209;22;20051;-94
2023/06/12 13:08:31;;;;;;;1390.43;999.90;;;;;;;;;;6250398;22;20012;-94
2023/06/12 13:10:57;;;;;;;1399.30;999.90;;;;;;;;;;6249659;22;20094;-94
2023/06/12 13:13:24;;;;;;;1465.50;999.90;;;;;;;;;;6224972;22;20406;-94
2023/06/12 13:15:50;;;;;;;1271.97;999.90;;;;;;;;;;6224386;22;20039;-95
2023/06/12 13:18:17;;;;;;;1451.05;999.90;;;;;;;;;;6250385;22;20034;-95
2023/06/12 13:20:45;;;;;;;1374.88;999.90;;;;;;;;;;6223987;22;20098;-94
2023/06/12 13:23:11;;;;;;;1115.93;977.72;;;;;;;;;;6224496;22;20008;-93
2023/06/12 13:25:38;;;;;;;1310.38;999.90;;;;;;;;;;6224726;22;20077;-93
2023/06/12 13:28:05;;;;;;;1350.38;999.90;;;;;;;;;;6225059;22;20008;-94
2023/06/12 13:30:34;;;;;;;1506.18;999.90;;;;;;;;;;6225454;22;20015;-94
2023/06/12 13:33:03;;;;;;;1331.93;999.90;;;;;;;;;;6250908;22;20012;-93
2023/06/12 13:35:29;;;;;;;1366.15;999.90;;;;;;;;;;6249902;22;20458;-93
2023/06/12 13:37:55;;;;;;;1264.25;999.90;;;;;;;;;;6250383;22;20515;-93
2023/06/12 13:40:23;;;;;;;1336.03;999.90;;;;;;;;;;6225015;22;20075;-95
2023/06/12 13:42:49;;;;;;;1379.30;999.90;;;;;;;;;;6250732;22;20011;-91
2023/06/12 13:45:15;;;;;;;1240.60;995.17;;;;;;;;;;6242863;22;20059;-95
2023/06/12 13:47:41;;;;;;;1325.28;999.90;;;;;;;;;;6256849;22;20023;-93
2023/06/12 13:50:11;;;;;;;1192.03;993.55;;;;;;;;;;6272108;22;20043;-94
2023/06/12 13:52:37;;;;;;;1271.38;999.90;;;;;;;;;;6283543;22;20118;-94
2023/06/12 13:55:04;;;;;;;1091.57;971.33;;;;;;;;;;6257169;22;20023;-95
2023/06/12 13:57:30;;;;;;;1070.38;955.75;;;;;;;;;;6245259;23;20031;-95
2023/06/12 13:59:56;;;;;;;1094.18;974.10;;;;;;;;;;6244835;23;20623;-95
2023/06/12 14:02:22;;;;;;;1111.88;972.20;;;;;;;;;;6244854;23;20023;-92
2023/06/12 14:04:48;;;;;;;1187.82;997.75;;;;;;;;;;6247429;22;20050;-91